Time;durP1;ratioP1;P1;durP2;ratioP2;P2;SDS_P1;SDS_P2;PMS_P1;PMS_P2;Temp;Humidity;BMP_temperature;BMP_pressure;BME280_temperature;BME280_humidity;BME280_pressure;Samples;Min_cycle;Max_cycle;Signal;HPM_P1;HPM_P2
2023/10/11 00:03:33;;;;;;;14.45;4.53;;;;;;;-145.68;57.50;73375.88;10395482;28;20259;-67
2023/10/11 00:08:40;;;;;;;9.00;4.28;;;;;;;-145.68;57.47;73365.88;10394683;28;20309;-67
2023/10/11 00:13:40;;;;;;;10.10;5.03;;;;;;;-145.68;56.80;73357.88;10393353;28;20291;-67
2023/10/11 00:18:41;;;;;;;10.15;5.40;;;;;;;-145.68;57.03;73375.88;10394165;28;20684;-67
2023/10/11 00:23:43;;;;;;;12.93;4.95;;;;;;;-145.68;56.44;73359.88;10395176;28;20532;-67
2023/10/11 00:28:44;;;;;;;14.65;5.32;;;;;;;-145.68;56.21;73361.88;10390966;28;20229;-67
2023/10/11 00:33:45;;;;;;;10.27;4.53;;;;;;;-145.68;56.50;73363.88;10393177;28;20193;-67
2023/10/11 00:38:50;;;;;;;12.05;4.22;;;;;;;-145.68;56.41;73375.88;10394660;28;20236;-68
2023/10/11 00:43:52;;;;;;;6.50;4.07;;;;;;;-145.68;55.74;73367.88;10392824;28;20607;-68
2023/10/11 00:48:59;;;;;;;13.23;4.63;;;;;;;-145.68;56.56;73399.84;10375925;28;20216;-68
2023/10/11 00:54:02;;;;;;;11.93;4.35;;;;;;;-145.68;56.75;73395.84;10376764;28;20626;-68
2023/10/11 00:59:10;;;;;;;10.00;4.78;;;;;;;-145.68;57.20;73415.84;10376727;28;20307;-68
2023/10/11 01:04:12;;;;;;;11.55;4.13;;;;;;;-145.68;57.18;73409.84;10394731;28;20196;-68
2023/10/11 01:09:26;;;;;;;8.40;4.00;;;;;;;-145.68;56.96;73391.84;10392590;28;20228;-68
2023/10/11 01:14:26;;;;;;;12.27;4.47;;;;;;;-145.68;56.75;73399.84;10388388;28;20237;-68
2023/10/11 01:19:26;;;;;;;8.93;4.72;;;;;;;-145.68;56.37;73391.84;10392951;28;20730;-69
2023/10/11 01:24:29;;;;;;;13.52;5.32;;;;;;;-145.68;56.51;73401.84;10394116;28;20560;-68
2023/10/11 01:29:29;;;;;;;15.85;4.50;;;;;;;-145.68;56.20;73389.88;10374248;28;20315;-68
2023/10/11 01:34:31;;;;;;;11.43;4.43;;;;;;;-145.68;55.81;73371.88;10388431;28;20700;-69
2023/10/11 01:39:32;;;;;;;12.43;4.28;;;;;;;-145.68;56.08;73395.84;10393558;28;20606;-68
2023/10/11 01:44:34;;;;;;;20.25;5.13;;;;;;;-145.68;55.66;73373.88;10400119;28;20189;-68
2023/10/11 01:49:39;;;;;;;15.27;4.60;;;;;;;-145.68;55.49;73369.88;10398651;28;20228;-68
2023/10/11 01:54:39;;;;;;;9.23;4.30;;;;;;;-145.68;55.24;73357.88;10400082;28;20201;-68
2023/10/11 01:59:40;;;;;;;11.60;4.28;;;;;;;-145.68;54.63;73329.91;10399003;28;20224;-68
2023/10/11 02:04:40;;;;;;;9.07;4.53;;;;;;;-145.68;53.89;73303.91;10399263;28;20200;-68
2023/10/11 02:09:43;;;;;;;8.52;3.60;;;;;;;-145.68;53.74;73291.94;10397382;28;20224;-68
2023/10/11 02:14:45;;;;;;;12.50;4.43;;;;;;;-145.68;53.17;73263.94;10400145;28;20185;-68
2023/10/11 02:19:45;;;;;;;11.02;4.55;;;;;;;-145.68;52.61;73229.97;10395515;28;20236;-67
2023/10/11 02:24:45;;;;;;;9.93;4.00;;;;;;;-145.68;51.95;73200.00;10398925;28;20215;-68
2023/10/11 02:29:47;;;;;;;9.25;3.83;;;;;;;-145.68;51.55;73186.00;10394649;28;20228;-68
2023/10/11 02:34:49;;;;;;;13.25;4.28;;;;;;;-145.68;51.38;73180.00;10399182;28;20570;-68
2023/10/11 02:39:51;;;;;;;10.25;4.50;;;;;;;-145.68;51.43;73182.00;10395892;28;20315;-68
2023/10/11 02:44:52;;;;;;;10.60;4.57;;;;;;;-145.68;51.50;73188.00;10395220;28;20201;-68
2023/10/11 02:49:53;;;;;;;10.43;4.10;;;;;;;-145.68;51.18;73176.00;10397577;28;20300;-67
2023/10/11 02:54:54;;;;;;;9.25;4.47;;;;;;;-145.68;51.39;73196.00;10397280;28;20205;-68
2023/10/11 02:59:56;;;;;;;9.98;4.13;;;;;;;-145.68;51.06;73172.00;10398026;28;20234;-68
2023/10/11 03:05:01;;;;;;;10.75;3.83;;;;;;;-145.68;51.04;73178.00;10395981;28;20200;-67
2023/10/11 03:10:03;;;;;;;9.70;4.00;;;;;;;-145.68;51.22;73190.00;10394784;28;20308;-67
2023/10/11 03:15:11;;;;;;;13.80;4.13;;;;;;;-145.68;51.27;73184.00;10396142;28;20250;-68
2023/10/11 03:20:28;;;;;;;9.15;4.28;;;;;;;-145.68;52.08;73221.97;10393892;28;20209;-67
2023/10/11 03:25:30;;;;;;;9.05;4.20;;;;;;;-145.68;51.71;73211.97;10397267;28;20220;-67
2023/10/11 03:30:35;;;;;;;8.75;4.05;;;;;;;-145.68;51.81;73200.00;10396187;28;20682;-67
2023/10/11 03:35:38;;;;;;;17.67;4.30;;;;;;;-145.68;51.91;73209.97;10395874;28;20723;-67
2023/10/11 03:41:14;;;;;;;11.20;4.55;;;;;;;-145.68;52.08;73215.97;10397537;28;20233;-67
2023/10/11 03:46:15;;;;;;;12.13;4.30;;;;;;;-145.68;52.15;73219.97;10391632;28;20694;-67
2023/10/11 03:51:19;;;;;;;7.57;3.90;;;;;;;-145.68;52.30;73221.97;10396110;28;20220;-67
2023/10/11 03:56:19;;;;;;;11.77;4.30;;;;;;;-145.68;52.01;73200.00;10391846;28;20744;-67
2023/10/11 04:06:20;;;;;;;10.23;4.10;;;;;;;-145.68;51.49;73174.00;10395422;28;20236;-68
2023/10/11 04:11:30;;;;;;;11.10;3.75;;;;;;;-145.68;51.99;73184.00;10395344;28;20231;-67
2023/10/11 04:16:31;;;;;;;9.43;4.75;;;;;;;-145.68;51.93;73188.00;10389729;28;20181;-67
2023/10/11 04:21:54;;;;;;;13.48;4.20;;;;;;;-145.68;51.54;73174.00;10396492;28;20232;-68
2023/10/11 04:26:58;;;;;;;8.25;4.00;;;;;;;-145.68;51.35;73170.00;10387724;28;20223;-68
2023/10/11 04:37:07;;;;;;;13.18;3.97;;;;;;;-145.68;51.54;73186.00;10385272;28;20252;-67
2023/10/11 04:42:07;;;;;;;7.82;4.00;;;;;;;-145.68;51.57;73190.00;10390218;28;20287;-67
2023/10/11 04:47:11;;;;;;;12.55;4.03;;;;;;;-145.68;51.54;73192.00;10385754;28;20638;-67
2023/10/11 04:52:17;;;;;;;7.15;3.95;;;;;;;-145.68;51.77;73219.97;10385977;28;20764;-67
2023/10/11 04:57:17;;;;;;;8.07;3.70;;;;;;;-145.68;51.23;73205.97;10390339;28;20205;-67
2023/10/11 05:02:28;;;;;;;8.13;3.92;;;;;;;-145.68;50.91;73192.00;10390229;28;20307;-67
2023/10/11 05:07:29;;;;;;;9.93;3.42;;;;;;;-145.68;51.28;73203.97;10378207;28;20251;-68
2023/10/11 05:12:29;;;;;;;8.45;4.30;;;;;;;-145.68;50.96;73194.00;10390269;28;20304;-67
2023/10/11 05:22:49;;;;;;;7.18;3.88;;;;;;;-145.68;50.07;73162.00;10392776;28;20215;-68
2023/10/11 05:27:56;;;;;;;14.25;3.67;;;;;;;-145.68;49.26;73122.03;10383296;28;20215;-67
2023/10/11 05:54:03;;;;;;;6.68;3.70;;;;;;;-145.68;48.17;73084.06;10438406;28;20184;-65
2023/10/11 05:59:10;;;;;;;11.02;3.67;;;;;;;-145.68;47.70;73064.09;10438033;28;20215;-66
2023/10/11 06:04:13;;;;;;;11.50;3.63;;;;;;;-145.68;47.47;73042.09;10434989;28;20234;-67
2023/10/11 06:09:17;;;;;;;11.45;3.42;;;;;;;-145.68;47.59;73046.09;10436959;28;20597;-66
2023/10/11 06:14:18;;;;;;;7.22;3.75;;;;;;;-145.68;47.22;73028.09;10431454;28;20285;-67
2023/10/11 06:19:19;;;;;;;7.90;3.63;;;;;;;-145.68;47.22;73034.09;10425337;28;20584;-66
2023/10/11 06:24:22;;;;;;;10.02;3.35;;;;;;;-145.68;47.17;73028.09;10436727;28;20210;-65
2023/10/11 06:29:23;;;;;;;7.25;3.00;;;;;;;-145.68;47.78;73048.09;10434992;28;20262;-66
2023/10/11 06:34:25;;;;;;;7.70;3.05;;;;;;;-145.68;47.73;73054.09;10429486;28;20790;-66
2023/10/11 06:44:52;;;;;;;5.50;3.22;;;;;;;-145.68;46.87;73020.13;10434137;28;20196;-66
2023/10/11 06:49:55;;;;;;;9.95;3.22;;;;;;;-145.68;46.42;72998.13;10435316;28;20604;-66
2023/10/11 06:55:28;;;;;;;10.43;3.90;;;;;;;-145.68;46.16;72992.13;10431704;28;20199;-66
2023/10/11 07:00:29;;;;;;;14.88;5.10;;;;;;;-145.68;45.19;72962.16;10416561;28;20227;-65
2023/10/11 07:05:31;;;;;;;10.27;4.10;;;;;;;-145.68;45.18;72958.16;10430406;28;20213;-67
2023/10/11 07:10:32;;;;;;;10.13;3.80;;;;;;;-145.68;45.25;72948.16;10432950;28;20220;-66
2023/10/11 07:15:46;;;;;;;10.38;3.15;;;;;;;-145.68;44.34;72920.19;10432271;28;20199;-67
2023/10/11 07:20:58;;;;;;;5.47;2.78;;;;;;;-145.68;44.90;72936.19;10428465;28;20826;-66
2023/10/11 07:26:22;;;;;;;12.60;3.63;;;;;;;-145.68;45.45;72948.16;10433048;28;20212;-66
2023/10/11 07:31:32;;;;;;;8.20;3.03;;;;;;;-145.68;44.80;72894.22;10413944;28;20281;-66
2023/10/11 07:36:36;;;;;;;6.45;3.08;;;;;;;-145.68;43.53;72856.22;10427347;28;20188;-66
2023/10/11 07:41:42;;;;;;;6.57;2.97;;;;;;;-145.68;43.77;72854.25;10432374;28;20282;-66
2023/10/11 07:46:43;;;;;;;10.13;3.35;;;;;;;-145.68;43.96;72858.22;10433380;28;20303;-65
2023/10/11 07:51:44;;;;;;;6.00;2.92;;;;;;;-145.68;43.70;72862.22;10432646;28;20236;-65
2023/10/11 07:56:48;;;;;;;11.80;3.30;;;;;;;-145.68;43.45;72854.25;10432333;28;20334;-66
2023/10/11 08:01:53;;;;;;;7.80;3.10;;;;;;;-145.68;43.68;72844.25;10428526;28;20239;-65
2023/10/11 08:07:06;;;;;;;6.18;2.85;;;;;;;-145.68;43.71;72852.25;10430509;28;20216;-65
2023/10/11 08:12:08;;;;;;;8.40;3.15;;;;;;;-145.68;43.82;72812.28;10428094;28;20273;-67
2023/10/11 08:17:10;;;;;;;7.53;2.80;;;;;;;-145.68;41.72;72634.41;10431214;28;20681;-68
2023/10/11 08:22:14;;;;;;;11.73;3.35;;;;;;;-145.68;40.08;72472.53;10429652;28;20935;-66
2023/10/11 08:32:27;;;;;;;10.73;2.95;;;;;;;-145.68;38.92;72484.53;10429039;28;20239;-66
2023/10/11 08:37:31;;;;;;;8.20;3.08;;;;;;;-145.68;39.15;72490.53;10426658;28;20287;-67
2023/10/11 08:42:32;;;;;;;6.15;3.15;;;;;;;-145.68;38.81;72426.59;10429207;28;20228;-67
2023/10/11 08:47:33;;;;;;;5.43;3.00;;;;;;;-145.68;38.95;72446.56;10420315;28;20224;-68
2023/10/11 08:52:34;;;;;;;7.90;3.45;;;;;;;-145.68;38.93;72424.59;10420496;28;20219;-67
2023/10/11 08:57:34;;;;;;;8.18;3.22;;;;;;;-145.68;38.75;72380.63;10429741;28;20239;-68
2023/10/11 09:02:35;;;;;;;6.65;2.90;;;;;;;-145.68;37.53;72370.63;10431988;28;20289;-68
2023/10/11 09:07:38;;;;;;;8.85;3.28;;;;;;;-145.68;37.48;72242.75;10419213;28;20253;-68
2023/10/11 09:12:46;;;;;;;7.30;2.97;;;;;;;-145.68;38.18;72372.63;10435500;28;20208;-67
2023/10/11 09:17:50;;;;;;;6.28;3.05;;;;;;;-145.68;38.24;72410.59;10435406;28;20193;-67
2023/10/11 09:22:55;;;;;;;8.35;3.45;;;;;;;-145.68;37.90;72360.66;10434440;28;20212;-67
2023/10/11 09:27:56;;;;;;;8.77;3.50;;;;;;;-145.68;37.85;72362.66;10434555;28;20316;-68
2023/10/11 09:32:59;;;;;;;9.32;3.38;;;;;;;-145.68;38.56;72330.66;10435075;28;20212;-67
2023/10/11 09:37:59;;;;;;;8.55;3.70;;;;;;;-145.68;37.21;72348.66;10433085;28;20195;-67
2023/10/11 09:43:00;;;;;;;7.40;3.00;;;;;;;-145.68;37.55;72348.66;10434250;28;20243;-67
2023/10/11 09:48:05;;;;;;;8.10;2.92;;;;;;;-145.68;37.44;72356.66;10432873;28;20219;-67
2023/10/11 09:53:09;;;;;;;7.15;3.55;;;;;;;-145.68;37.48;72286.72;10422195;28;20681;-67
2023/10/11 09:58:17;;;;;;;10.88;3.25;;;;;;;-145.68;38.30;72360.66;10431376;28;20193;-68
2023/10/11 10:03:17;;;;;;;6.85;3.13;;;;;;;-145.68;36.97;72304.69;10423248;28;20322;-68
2023/10/11 10:08:18;;;;;;;6.40;3.42;;;;;;;-145.68;37.48;72352.66;10424477;28;20815;-68
2023/10/11 10:13:21;;;;;;;8.20;3.15;;;;;;;-145.68;36.79;72256.75;10430698;28;20241;-68
2023/10/11 10:18:22;;;;;;;15.88;3.55;;;;;;;-145.68;37.28;72304.69;10432368;28;20224;-68
2023/10/11 10:23:27;;;;;;;6.65;2.67;;;;;;;-145.68;36.14;72172.81;10432657;28;20213;-68
2023/10/11 10:28:36;;;;;;;7.95;3.10;;;;;;;-145.68;36.66;72280.72;10431306;28;20220;-68
2023/10/11 10:33:38;;;;;;;9.57;3.67;;;;;;;-145.68;35.98;72270.72;10428382;28;20199;-68
2023/10/11 10:39:00;;;;;;;8.93;3.30;;;;;;;-145.68;37.34;72298.69;10433805;28;20188;-68
2023/10/11 10:44:11;;;;;;;6.95;3.15;;;;;;;-145.68;38.70;72300.69;10431859;28;20715;-68
2023/10/11 10:49:11;;;;;;;5.15;3.47;;;;;;;-145.68;38.30;72296.69;10432933;28;20318;-67
2023/10/11 10:54:14;;;;;;;7.82;3.70;;;;;;;-145.68;37.59;72198.78;10432374;28;20184;-68
2023/10/11 10:59:20;;;;;;;6.68;3.35;;;;;;;-145.68;38.11;72256.75;10431712;28;20212;-68
2023/10/11 11:04:27;;;;;;;7.40;3.83;;;;;;;-145.68;37.87;72316.69;10431401;28;20685;-68
2023/10/11 11:09:27;;;;;;;7.65;3.25;;;;;;;-145.68;38.52;72228.75;10444661;28;20326;-69
2023/10/11 11:14:31;;;;;;;11.57;3.25;;;;;;;-145.68;37.38;72160.81;10421064;28;20191;-68
2023/10/11 11:19:34;;;;;;;6.47;2.90;;;;;;;-145.68;37.20;72150.84;10420972;28;20713;-67
2023/10/11 11:24:34;;;;;;;7.32;3.58;;;;;;;-145.68;37.23;72146.84;10429729;28;20216;-68
2023/10/11 11:29:35;;;;;;;5.30;3.03;;;;;;;-145.68;37.73;72090.91;10429275;28;20217;-68
2023/10/11 11:34:38;;;;;;;13.93;3.53;;;;;;;-145.68;37.94;72086.91;10429707;28;20208;-68
2023/10/11 11:39:49;;;;;;;16.13;3.22;;;;;;;-145.68;37.38;72076.91;10454394;22;22061;-69
2023/10/11 11:44:50;;;;;;;8.35;3.60;;;;;;;-145.68;36.58;72060.94;10464943;28;20195;-69
2023/10/11 11:49:51;;;;;;;6.88;3.42;;;;;;;-145.68;36.44;72170.81;10469749;28;20288;-70
2023/10/11 11:54:54;;;;;;;7.55;3.28;;;;;;;-145.68;36.43;72116.88;10470223;28;20264;-70
2023/10/11 11:59:55;;;;;;;8.40;3.20;;;;;;;-145.68;36.26;72144.84;10470513;28;20210;-71
2023/10/11 12:04:56;;;;;;;5.53;3.50;;;;;;;-145.68;36.58;72200.78;10469456;28;20203;-70
2023/10/11 12:09:56;;;;;;;10.82;3.72;;;;;;;-145.68;36.39;72130.84;10469729;28;20293;-72
2023/10/11 12:14:59;;;;;;;10.23;3.50;;;;;;;-145.68;35.63;72136.84;10469519;28;20195;-70
2023/10/11 12:20:00;;;;;;;7.45;2.83;;;;;;;-145.68;36.40;72140.84;10466404;28;20348;-70
2023/10/11 12:25:07;;;;;;;6.78;3.00;;;;;;;-145.68;36.64;72116.88;10469485;28;20240;-69
2023/10/11 12:30:19;;;;;;;8.80;3.42;;;;;;;-145.68;36.60;72120.88;10467125;28;20246;-70
2023/10/11 12:35:23;;;;;;;12.07;3.13;;;;;;;-145.68;36.04;71961.03;10469173;28;20211;-71
2023/10/11 12:40:23;;;;;;;8.55;3.60;;;;;;;-145.68;35.80;72070.91;10452867;28;20579;-70
2023/10/11 12:45:24;;;;;;;11.63;3.60;;;;;;;-145.68;36.00;72066.91;10454897;28;20195;-70
2023/10/11 12:50:24;;;;;;;7.95;3.63;;;;;;;-145.68;35.54;72004.97;10468126;28;20215;-67
2023/10/11 12:55:25;;;;;;;5.57;2.85;;;;;;;-145.68;36.49;72070.91;10453811;28;20188;-69
2023/10/11 13:00:28;;;;;;;8.23;3.10;;;;;;;-145.68;36.82;72128.84;10466469;28;20211;-70
2023/10/11 13:05:30;;;;;;;13.38;4.25;;;;;;;-145.68;36.57;72036.94;10466838;28;20234;-70
2023/10/11 13:10:33;;;;;;;7.43;2.85;;;;;;;-145.68;36.79;72098.88;10467607;28;20228;-69
2023/10/11 13:15:33;;;;;;;7.05;2.97;;;;;;;-145.68;36.82;72132.84;10458288;28;20713;-70
2023/10/11 13:20:35;;;;;;;10.70;3.40;;;;;;;-145.68;36.15;72136.84;10448872;28;20273;-69
2023/10/11 13:25:35;;;;;;;9.05;3.30;;;;;;;-145.68;35.72;72022.97;10463719;28;20666;-71
2023/10/11 13:30:36;;;;;;;8.50;3.00;;;;;;;-145.68;35.03;72030.94;10471012;28;20299;-71
2023/10/11 13:35:36;;;;;;;9.13;3.15;;;;;;;-145.68;35.01;72174.81;10471439;28;20188;-70
2023/10/11 13:40:39;;;;;;;12.48;3.63;;;;;;;-145.68;35.65;72136.84;10478161;28;20235;-70
2023/10/11 13:45:45;;;;;;;13.30;3.63;;;;;;;-145.68;36.06;72166.81;10478622;28;20216;-70
2023/10/11 13:50:49;;;;;;;14.75;3.83;;;;;;;-145.68;35.87;72102.88;10478061;28;20258;-70
2023/10/11 13:55:51;;;;;;;7.70;3.55;;;;;;;-145.68;36.11;72200.78;10471328;28;20683;-70
2023/10/11 14:06:10;;;;;;;11.63;3.53;;;;;;;-145.68;37.13;72272.72;10477474;28;20219;-70
2023/10/11 14:11:19;;;;;;;8.20;3.47;;;;;;;-145.68;37.04;72190.81;10475300;28;20854;-69
2023/10/11 14:16:21;;;;;;;13.85;3.53;;;;;;;-145.68;36.66;72174.81;10476752;28;20219;-69
2023/10/11 14:21:24;;;;;;;9.93;3.40;;;;;;;-145.68;37.18;72198.78;10477152;28;20740;-68
2023/10/11 14:26:24;;;;;;;8.88;3.28;;;;;;;-145.68;37.23;72132.84;10472040;28;20251;-69
2023/10/11 14:31:24;;;;;;;11.82;3.65;;;;;;;-145.68;37.73;72242.75;10476346;28;20291;-68
2023/10/11 14:36:25;;;;;;;7.38;3.30;;;;;;;-145.68;37.78;72188.81;10477096;28;20210;-69
2023/10/11 14:41:26;;;;;;;9.88;3.63;;;;;;;-145.68;38.00;72148.84;10475929;28;20235;-69
2023/10/11 14:46:26;;;;;;;11.88;3.85;;;;;;;-145.68;38.66;72256.75;10476575;28;20226;-70
2023/10/11 14:51:26;;;;;;;13.85;4.00;;;;;;;-145.68;38.63;72234.75;10474894;28;20279;-70
2023/10/11 14:56:27;;;;;;;11.30;3.85;;;;;;;-145.68;39.09;72212.78;10476189;28;20283;-69
2023/10/11 15:01:27;;;;;;;13.65;3.58;;;;;;;-145.68;39.84;72292.72;10471334;28;20220;-69
2023/10/11 15:06:27;;;;;;;15.40;4.00;;;;;;;-145.68;40.18;72292.72;10471162;28;20234;-68
2023/10/11 15:11:29;;;;;;;12.10;3.92;;;;;;;-145.68;40.79;72340.66;10466020;28;20294;-68
2023/10/11 15:16:30;;;;;;;13.23;4.35;;;;;;;-145.68;41.64;72344.66;10461156;28;20680;-68
2023/10/11 15:21:30;;;;;;;19.45;3.85;;;;;;;-145.68;42.50;72416.59;10466043;28;20207;-68
2023/10/11 15:26:32;;;;;;;16.75;3.70;;;;;;;-145.68;42.23;72424.59;10465280;28;20643;-68
2023/10/11 15:31:33;;;;;;;10.82;3.63;;;;;;;-145.68;42.55;72448.56;10467198;28;20211;-68
2023/10/11 15:36:35;;;;;;;18.40;4.65;;;;;;;-145.68;42.58;72468.56;10474266;28;20184;-68
2023/10/11 15:41:36;;;;;;;11.90;3.97;;;;;;;-145.68;43.43;72492.53;10473398;28;20314;-68
2023/10/11 15:46:37;;;;;;;17.13;4.85;;;;;;;-145.68;44.06;72540.50;10473933;28;20364;-68
2023/10/11 15:51:39;;;;;;;10.52;3.78;;;;;;;-145.68;44.50;72560.47;10473367;28;20222;-68
2023/10/11 15:56:43;;;;;;;8.52;4.13;;;;;;;-145.68;45.04;72576.47;10468808;28;20690;-68
2023/10/11 16:01:44;;;;;;;12.02;3.97;;;;;;;-145.68;45.33;72586.44;10463560;28;20207;-69
2023/10/11 16:06:48;;;;;;;13.77;3.85;;;;;;;-145.68;46.09;72632.41;10468958;28;20223;-69
2023/10/11 16:11:49;;;;;;;13.32;4.47;;;;;;;-145.68;46.21;72630.41;10462694;28;20222;-68
2023/10/11 16:16:51;;;;;;;15.90;4.72;;;;;;;-145.68;46.70;72652.41;10470539;28;20187;-68
2023/10/11 16:21:51;;;;;;;13.88;3.78;;;;;;;-145.68;46.98;72662.38;10466816;28;20211;-69
2023/10/11 16:26:53;;;;;;;12.57;4.28;;;;;;;-145.68;46.87;72672.38;10471864;28;20752;-69
2023/10/11 16:31:53;;;;;;;10.45;4.03;;;;;;;-145.68;47.31;72688.38;10464714;28;20295;-68
2023/10/11 16:36:54;;;;;;;15.65;3.78;;;;;;;-145.68;47.43;72700.34;10473049;28;20189;-68
2023/10/11 16:41:57;;;;;;;13.90;4.10;;;;;;;-145.68;47.25;72692.38;10473486;28;20249;-68
2023/10/11 16:46:58;;;;;;;11.93;4.15;;;;;;;-145.68;47.40;72704.34;10473606;28;20302;-68
2023/10/11 16:51:58;;;;;;;14.27;4.22;;;;;;;-145.68;47.34;72694.38;10473520;28;20214;-68
2023/10/11 16:56:59;;;;;;;13.48;3.97;;;;;;;-145.68;47.44;72700.34;10472676;28;20183;-68
2023/10/11 17:01:59;;;;;;;10.18;3.97;;;;;;;-145.68;47.57;72712.34;10473694;28;20221;-68
2023/10/11 17:07:00;;;;;;;12.20;3.55;;;;;;;-145.68;47.10;72698.34;10473046;28;20219;-69
2023/10/11 17:12:00;;;;;;;15.68;3.92;;;;;;;-145.68;46.87;72694.38;10476070;28;20242;-69
2023/10/11 17:17:00;;;;;;;15.70;3.95;;;;;;;-145.68;46.96;72708.34;10481159;28;20198;-69
2023/10/11 17:22:02;;;;;;;11.52;3.65;;;;;;;-145.68;47.02;72704.34;10480844;28;20211;-68
2023/10/11 17:27:04;;;;;;;8.20;3.50;;;;;;;-145.68;46.82;72700.34;10480297;28;20293;-67
2023/10/11 17:32:04;;;;;;;8.68;3.55;;;;;;;-145.68;47.17;72706.34;10480118;28;20222;-68
2023/10/11 17:37:06;;;;;;;14.57;4.40;;;;;;;-145.68;47.18;72716.34;10480599;28;20677;-68
2023/10/11 17:42:08;;;;;;;9.75;3.72;;;;;;;-145.68;47.06;72708.34;10478749;28;20239;-69
2023/10/11 17:47:08;;;;;;;13.73;3.90;;;;;;;-145.68;47.11;72718.34;10480192;28;20211;-68
2023/10/11 17:52:08;;;;;;;10.38;4.15;;;;;;;-145.68;46.69;72706.34;10479547;28;20206;-69
2023/10/11 17:57:09;;;;;;;11.55;3.85;;;;;;;-145.68;46.46;72698.34;10479736;28;20267;-68
2023/10/11 18:02:09;;;;;;;11.55;4.63;;;;;;;-145.68;46.89;72716.34;10477622;28;20221;-68
2023/10/11 18:07:09;;;;;;;15.55;5.15;;;;;;;-145.68;47.35;72742.31;10478728;28;20207;-69
2023/10/11 18:12:10;;;;;;;15.75;5.05;;;;;;;-145.68;47.54;72760.31;10479352;28;20218;-69
2023/10/11 18:17:11;;;;;;;8.82;3.67;;;;;;;-145.68;47.08;72734.31;10479145;28;20198;-68
2023/10/11 18:22:12;;;;;;;19.30;4.43;;;;;;;-145.68;47.30;72750.31;10467341;28;20217;-68
2023/10/11 18:27:13;;;;;;;11.20;4.13;;;;;;;-145.68;47.41;72748.31;10478278;28;20233;-69
2023/10/11 18:32:18;;;;;;;12.55;4.07;;;;;;;-145.68;47.67;72750.31;10478229;28;20210;-68
2023/10/11 18:37:19;;;;;;;13.27;4.53;;;;;;;-145.68;47.87;72766.31;10478722;28;20225;-68
2023/10/11 18:42:19;;;;;;;13.95;4.85;;;;;;;-145.68;47.82;72764.31;10477515;28;20239;-69
2023/10/11 18:47:21;;;;;;;9.73;3.60;;;;;;;-145.68;47.47;72744.31;10477324;28;20225;-68
2023/10/11 18:52:22;;;;;;;14.52;4.43;;;;;;;-145.68;47.37;72748.31;10476071;28;20591;-69
2023/10/11 18:57:22;;;;;;;11.02;3.85;;;;;;;-145.68;47.58;72776.28;10477484;28;20192;-69
2023/10/11 19:02:23;;;;;;;12.48;4.15;;;;;;;-145.68;47.41;72768.31;10477369;28;20222;-69
2023/10/11 19:07:23;;;;;;;11.85;3.40;;;;;;;-145.68;47.38;72770.31;10477015;28;20218;-69
2023/10/11 19:12:24;;;;;;;9.85;3.83;;;;;;;-145.68;47.59;72784.28;10476921;28;20690;-69
2023/10/11 19:17:24;;;;;;;9.25;3.90;;;;;;;-145.68;47.65;72786.28;10476582;28;20646;-68
2023/10/11 19:22:25;;;;;;;9.43;3.97;;;;;;;-145.68;47.57;72788.28;10475463;28;20208;-68
2023/10/11 19:27:25;;;;;;;12.40;4.03;;;;;;;-145.68;48.05;72816.25;10474786;28;20243;-68
2023/10/11 19:32:26;;;;;;;12.68;3.85;;;;;;;-145.68;47.57;72790.28;10465745;28;20212;-68
2023/10/11 19:37:29;;;;;;;9.93;4.03;;;;;;;-145.68;47.91;72802.28;10461264;28;20278;-68
2023/10/11 19:42:29;;;;;;;14.48;3.90;;;;;;;-145.68;47.87;72798.28;10461413;28;20627;-68
2023/10/11 19:47:30;;;;;;;14.13;3.83;;;;;;;-145.68;48.07;72810.28;10475256;28;20223;-68
2023/10/11 19:52:30;;;;;;;9.95;3.40;;;;;;;-145.68;47.51;72784.28;10472890;28;20223;-68
2023/10/11 19:57:31;;;;;;;15.55;3.72;;;;;;;-145.68;47.17;72772.31;10471720;28;20207;-68
2023/10/11 20:02:31;;;;;;;15.40;3.38;;;;;;;-145.68;47.39;72772.31;10467116;28;20357;-68
2023/10/11 20:07:32;;;;;;;16.52;4.25;;;;;;;-145.68;47.56;72796.28;10461938;28;20713;-68
2023/10/11 20:12:33;;;;;;;9.15;3.67;;;;;;;-145.68;47.74;72804.28;10473659;28;20219;-69
2023/10/11 20:17:33;;;;;;;15.30;4.10;;;;;;;-145.68;47.78;72802.28;10472549;28;20282;-68
2023/10/11 20:22:35;;;;;;;15.80;4.40;;;;;;;-145.68;47.92;72822.25;10464895;28;20216;-68
2023/10/11 20:27:43;;;;;;;12.75;3.50;;;;;;;-145.68;48.37;72832.25;10466925;28;20214;-68
2023/10/11 20:32:44;;;;;;;10.25;3.65;;;;;;;-145.68;47.98;72810.28;10469935;28;20214;-69
2023/10/11 20:37:45;;;;;;;8.55;3.65;;;;;;;-145.68;48.13;72812.28;10478849;28;20219;-69
2023/10/11 20:42:45;;;;;;;11.45;3.28;;;;;;;-145.68;48.45;72814.28;10469458;28;20327;-69
2023/10/11 20:47:47;;;;;;;10.45;3.85;;;;;;;-145.68;48.13;72804.28;10472605;28;20212;-69
2023/10/11 20:52:52;;;;;;;13.38;3.60;;;;;;;-145.68;48.13;72808.28;10482986;28;20972;-69
2023/10/11 21:03:12;;;;;;;12.75;3.95;;;;;;;-145.68;48.51;72818.25;10474804;28;20219;-68
2023/10/11 21:08:14;;;;;;;11.13;3.75;;;;;;;-145.68;48.21;72812.28;10480476;28;20762;-68
2023/10/11 21:13:19;;;;;;;15.55;3.50;;;;;;;-145.68;48.32;72808.28;10479107;28;20663;-68
2023/10/11 21:18:20;;;;;;;15.15;3.60;;;;;;;-145.68;48.48;72810.28;10481899;28;20572;-68
2023/10/11 21:23:21;;;;;;;11.38;3.65;;;;;;;-145.68;48.58;72804.28;10479824;28;20211;-68
2023/10/11 21:28:23;;;;;;;12.38;4.07;;;;;;;-145.68;48.70;72804.28;10481470;28;20272;-68
2023/10/11 21:33:25;;;;;;;11.27;3.65;;;;;;;-145.68;48.84;72800.28;10479935;28;20307;-69
2023/10/11 21:38:25;;;;;;;16.23;3.42;;;;;;;-145.68;48.90;72800.28;10481189;28;20612;-68
2023/10/11 21:43:26;;;;;;;12.98;3.72;;;;;;;-145.68;49.00;72806.28;10480835;28;20235;-68
2023/10/11 21:48:26;;;;;;;8.75;3.88;;;;;;;-145.68;48.89;72804.28;10478084;28;20303;-68
2023/10/11 21:53:26;;;;;;;13.38;4.38;;;;;;;-145.68;48.95;72796.28;10476570;28;20587;-67
2023/10/11 21:58:29;;;;;;;14.75;3.60;;;;;;;-145.68;48.84;72786.28;10479263;28;21019;-68
2023/10/11 22:03:30;;;;;;;11.15;3.65;;;;;;;-145.68;49.16;72796.28;10476571;28;20212;-68
2023/10/11 22:08:35;;;;;;;11.65;3.28;;;;;;;-145.68;49.05;72788.28;10479290;28;20261;-68
2023/10/11 22:13:35;;;;;;;11.85;3.60;;;;;;;-145.68;49.35;72796.28;10471259;28;20216;-68
2023/10/11 22:18:40;;;;;;;16.38;4.18;;;;;;;-145.68;49.60;72802.28;10478254;28;20586;-68
2023/10/11 22:23:44;;;;;;;7.75;3.67;;;;;;;-145.68;49.76;72800.28;10479407;28;20313;-68
2023/10/11 22:28:44;;;;;;;14.50;3.90;;;;;;;-145.68;49.89;72804.28;10478048;28;20220;-69
2023/10/11 22:33:44;;;;;;;11.70;3.20;;;;;;;-145.68;49.91;72796.28;10478822;28;20226;-69
2023/10/11 22:38:45;;;;;;;6.10;3.58;;;;;;;-145.68;49.56;72786.28;10479077;28;20180;-68
2023/10/11 22:43:45;;;;;;;11.25;3.80;;;;;;;-145.68;49.69;72796.28;10476113;28;20227;-69
2023/10/11 22:48:47;;;;;;;15.13;4.47;;;;;;;-145.68;49.65;72796.28;10478105;28;20215;-67
2023/10/11 22:53:47;;;;;;;8.35;3.75;;;;;;;-145.68;49.44;72788.28;10473399;28;21752;-68
2023/10/11 22:58:50;;;;;;;9.35;3.53;;;;;;;-145.68;49.49;72794.28;10478053;28;20298;-67
2023/10/11 23:03:52;;;;;;;13.48;3.90;;;;;;;-145.68;49.94;72812.28;10471943;28;20211;-68
2023/10/11 23:08:57;;;;;;;11.77;3.83;;;;;;;-145.68;49.91;72816.25;10473258;28;20214;-68
2023/10/11 23:13:57;;;;;;;13.02;3.38;;;;;;;-145.68;49.90;72812.28;10471045;28;20203;-68
2023/10/11 23:18:58;;;;;;;11.50;3.97;;;;;;;-145.68;50.02;72816.25;10477343;28;20195;-68
2023/10/11 23:23:58;;;;;;;10.85;3.58;;;;;;;-145.68;50.14;72820.25;10475466;28;20214;-69
2023/10/11 23:29:03;;;;;;;11.57;3.83;;;;;;;-145.68;50.31;72824.25;10474688;28;20218;-68
2023/10/11 23:34:12;;;;;;;13.52;3.60;;;;;;;-145.68;50.78;72830.25;10474666;28;20203;-69
2023/10/11 23:39:12;;;;;;;7.68;3.83;;;;;;;-145.68;50.62;72824.25;10474231;28;20200;-67
2023/10/11 23:44:19;;;;;;;10.80;3.78;;;;;;;-145.68;50.76;72836.25;10474662;28;20200;-69